Terminal Aerodrome Forecast
Issued by NWS Detroit/Pontiac, MI

Home | Current Version | Previous Version | Text Only | Print | Product List | Glossary On
Versions: 1 2 3 4 5 6 7 8 9 10 11 12 13 14 15 16 17
417
FTUS43 KDTX 051125
TAFFNT
TAF
KFNT 051125Z 0512/0612 25009KT P6SM OVC020
     FM060100 18005KT P6SM SCT020
     FM060800 07005KT 4SM BR BKN015=

USA.gov is the U.S. government's official web portal to all federal, state and local government web resources and services.